createdAt,value
2018-06-18T17:22:06.359Z,23.00
2018-06-18T17:24:34.488Z,23.10
2018-06-18T17:27:02.633Z,23.10
2018-06-18T17:29:30.791Z,23.00
2018-06-18T17:31:58.939Z,22.90
2018-06-18T17:34:27.054Z,22.80
2018-06-18T17:36:55.192Z,22.80
2018-06-18T17:39:23.343Z,22.80
2018-06-18T17:41:51.461Z,22.70
2018-06-18T17:44:19.581Z,22.70
2018-06-18T17:46:47.733Z,22.50
2018-06-18T17:49:15.866Z,22.50
2018-06-18T17:51:44.012Z,22.40
2018-06-18T17:54:12.151Z,22.30
2018-06-18T17:56:40.274Z,22.30
2018-06-18T17:59:08.401Z,22.30
2018-06-18T18:01:36.523Z,22.30
2018-06-18T18:04:04.845Z,22.20
2018-06-18T18:06:32.987Z,22.20
2018-06-18T18:09:01.122Z,22.20
2018-06-18T18:11:29.240Z,22.20
2018-06-18T18:13:57.369Z,22.10
2018-06-18T18:16:25.486Z,22.10
2018-06-18T18:18:53.622Z,22.00
2018-06-18T18:21:21.776Z,22.10
2018-06-18T18:23:49.911Z,22.10
2018-06-18T18:26:18.057Z,22.00
2018-06-18T18:28:46.210Z,22.00
2018-06-18T18:31:14.338Z,21.90
2018-06-18T18:33:42.484Z,21.90
2018-06-18T18:36:10.618Z,21.80
2018-06-18T18:38:38.745Z,21.80
2018-06-18T18:41:06.870Z,21.80
2018-06-18T18:43:35.006Z,21.80
2018-06-18T18:46:03.143Z,21.70
2018-06-18T18:48:31.292Z,21.60
2018-06-18T18:50:59.405Z,21.60
2018-06-18T18:53:27.533Z,21.50
2018-06-18T18:56:07.824Z,21.40
2018-06-18T18:59:42.768Z,21.30
2018-06-18T19:02:10.919Z,21.20
2018-06-18T19:04:56.968Z,21.10
2018-06-18T19:07:28.975Z,21.10
2018-06-18T19:10:03.613Z,21.00
2018-06-18T19:12:31.766Z,20.90
2018-06-18T19:14:59.927Z,20.80
2018-06-18T19:17:28.085Z,20.80
2018-06-18T19:20:01.200Z,20.60
2018-06-18T19:22:29.353Z,20.50
2018-06-18T19:24:57.480Z,20.50
2018-06-18T19:27:25.612Z,20.40
2018-06-18T19:29:53.764Z,20.40
2018-06-18T19:32:21.942Z,20.30
2018-06-18T19:34:50.071Z,20.20
2018-06-18T19:37:18.215Z,20.10
2018-06-18T19:39:47.210Z,20.10
2018-06-18T19:42:15.458Z,20.00
2018-06-18T19:44:44.236Z,20.00
2018-06-18T19:48:17.035Z,19.90
2018-06-18T19:50:45.227Z,19.80
2018-06-18T19:53:13.346Z,19.80
2018-06-18T19:55:41.515Z,19.70
2018-06-18T19:58:09.652Z,19.70
2018-06-18T20:00:45.206Z,19.60
2018-06-18T20:03:13.424Z,19.50
2018-06-18T20:05:41.543Z,19.40
2018-06-18T20:08:11.744Z,19.30
2018-06-18T20:10:40.257Z,19.30
2018-06-18T20:13:08.410Z,19.30
2018-06-18T20:15:36.550Z,19.30
2018-06-18T20:18:04.793Z,19.30
2018-06-18T20:20:32.935Z,19.10
2018-06-18T20:23:01.366Z,18.80
2018-06-18T20:27:59.290Z,18.40
2018-06-18T20:30:27.452Z,18.30
2018-06-18T20:32:55.645Z,18.10
2018-06-18T20:35:41.155Z,18.10
2018-06-18T20:38:09.266Z,18.00
2018-06-18T20:40:37.416Z,17.90
2018-06-18T20:43:06.244Z,17.80
2018-06-18T20:45:34.377Z,17.80
2018-06-18T20:50:30.478Z,17.60
2018-06-18T20:52:58.676Z,17.60
2018-06-18T20:55:27.004Z,17.50
2018-06-18T20:57:55.166Z,17.50
2018-06-18T21:00:23.301Z,17.40
2018-06-18T21:02:51.445Z,17.30
2018-06-18T21:05:19.611Z,17.30
2018-06-18T21:07:47.792Z,17.20
2018-06-18T21:10:15.847Z,17.10
2018-06-18T21:12:44.010Z,17.00
2018-06-18T21:15:12.129Z,17.00
2018-06-18T21:17:40.275Z,16.90
2018-06-18T21:20:08.388Z,16.90
2018-06-18T21:22:36.532Z,16.80
2018-06-18T21:25:04.881Z,16.80
2018-06-18T21:27:33.028Z,16.70
2018-06-18T21:30:01.151Z,16.60
2018-06-18T21:32:29.300Z,16.50
2018-06-18T21:34:58.082Z,16.50
2018-06-18T21:37:26.205Z,16.50
2018-06-18T21:39:54.335Z,16.40
2018-06-18T21:42:22.482Z,16.30
2018-06-18T21:44:57.541Z,16.30
2018-06-18T21:47:25.667Z,16.30
2018-06-18T21:49:53.831Z,16.30
2018-06-18T21:52:22.077Z,16.30
2018-06-18T21:54:50.224Z,16.30
2018-06-18T21:57:18.363Z,16.30
2018-06-18T21:59:46.497Z,16.20
2018-06-18T22:02:14.640Z,16.20
2018-06-18T22:04:42.753Z,16.30
2018-06-18T22:07:10.937Z,16.30
2018-06-18T22:09:39.086Z,16.20
2018-06-18T22:12:07.240Z,16.20
2018-06-18T22:14:35.351Z,16.20
2018-06-18T22:17:03.502Z,16.00
2018-06-18T22:19:31.666Z,15.90
2018-06-18T22:21:59.808Z,15.80
2018-06-18T22:24:27.953Z,15.80
2018-06-18T22:26:56.094Z,15.80
2018-06-18T22:29:24.246Z,15.70
2018-06-18T22:31:52.406Z,15.70
2018-06-18T22:34:20.606Z,15.70
2018-06-18T22:36:48.699Z,15.70
2018-06-18T22:39:16.865Z,15.60
2018-06-18T22:41:45.001Z,15.60
2018-06-18T22:44:13.153Z,15.60
2018-06-18T22:46:41.305Z,15.60
2018-06-18T22:51:37.387Z,15.50
2018-06-18T22:54:05.601Z,15.40
2018-06-18T22:56:33.666Z,15.30
2018-06-18T22:59:01.822Z,15.30
2018-06-18T23:01:29.979Z,15.30
2018-06-18T23:03:58.151Z,15.30
2018-06-18T23:06:26.326Z,15.20
2018-06-18T23:08:54.506Z,15.20
2018-06-18T23:11:22.652Z,15.20
2018-06-18T23:13:50.830Z,15.20
2018-06-18T23:16:18.993Z,15.20
2018-06-18T23:18:47.139Z,15.20
2018-06-18T23:21:15.269Z,15.20
2018-06-18T23:23:43.426Z,15.10
2018-06-18T23:26:11.561Z,15.20
2018-06-18T23:28:47.695Z,15.10
2018-06-18T23:31:15.863Z,15.10
2018-06-18T23:33:43.973Z,15.00
2018-06-18T23:36:12.115Z,15.00
2018-06-18T23:38:40.241Z,14.90
2018-06-18T23:41:08.404Z,15.00
2018-06-18T23:43:36.581Z,14.90
2018-06-18T23:46:04.969Z,14.90
2018-06-18T23:48:33.115Z,14.80
2018-06-18T23:51:01.257Z,14.80
2018-06-18T23:53:29.402Z,14.80
2018-06-18T23:55:57.554Z,14.70
2018-06-18T23:58:25.694Z,14.70
